sensor_id;sensor_type;location;lat;lon;timestamp;P1;durP1;ratioP1;P2;durP2;ratioP2
39314;SDS011;28703;44.412;11.918;2023-03-14T00:02:05;7.72;;;2.50;;
39314;SDS011;28703;44.412;11.918;2023-03-14T00:04:31;4.63;;;2.03;;
39314;SDS011;28703;44.412;11.918;2023-03-14T00:06:57;4.18;;;1.73;;
39314;SDS011;28703;44.412;11.918;2023-03-14T00:20:45;8.55;;;2.03;;
39314;SDS011;28703;44.412;11.918;2023-03-14T00:23:11;4.68;;;1.60;;
39314;SDS011;28703;44.412;11.918;2023-03-14T00:25:37;4.50;;;1.45;;
39314;SDS011;28703;44.412;11.918;2023-03-14T00:28:03;6.70;;;1.70;;
39314;SDS011;28703;44.412;11.918;2023-03-14T00:30:29;5.97;;;1.55;;
39314;SDS011;28703;44.412;11.918;2023-03-14T00:32:55;9.65;;;1.95;;
39314;SDS011;28703;44.412;11.918;2023-03-14T00:35:21;10.27;;;2.08;;
39314;SDS011;28703;44.412;11.918;2023-03-14T00:37:47;6.10;;;1.83;;
39314;SDS011;28703;44.412;11.918;2023-03-14T00:40:13;6.25;;;1.88;;
39314;SDS011;28703;44.412;11.918;2023-03-14T00:42:39;4.53;;;1.30;;
39314;SDS011;28703;44.412;11.918;2023-03-14T00:45:05;4.20;;;1.63;;
39314;SDS011;28703;44.412;11.918;2023-03-14T00:47:34;7.53;;;2.55;;
39314;SDS011;28703;44.412;11.918;2023-03-14T00:49:59;5.75;;;2.17;;
39314;SDS011;28703;44.412;11.918;2023-03-14T00:52:26;9.00;;;2.40;;
39314;SDS011;28703;44.412;11.918;2023-03-14T00:54:52;8.23;;;2.40;;
39314;SDS011;28703;44.412;11.918;2023-03-14T00:57:18;8.70;;;2.67;;
39314;SDS011;28703;44.412;11.918;2023-03-14T00:59:44;7.45;;;2.10;;
39314;SDS011;28703;44.412;11.918;2023-03-14T01:02:09;6.00;;;1.63;;
39314;SDS011;28703;44.412;11.918;2023-03-14T01:04:35;7.00;;;1.90;;
39314;SDS011;28703;44.412;11.918;2023-03-14T01:07:02;7.40;;;1.60;;
39314;SDS011;28703;44.412;11.918;2023-03-14T01:09:28;6.63;;;1.75;;
39314;SDS011;28703;44.412;11.918;2023-03-14T01:11:54;9.20;;;1.80;;
39314;SDS011;28703;44.412;11.918;2023-03-14T01:14:20;6.75;;;1.80;;
39314;SDS011;28703;44.412;11.918;2023-03-14T01:16:46;4.05;;;1.50;;
39314;SDS011;28703;44.412;11.918;2023-03-14T01:19:12;8.70;;;1.95;;
39314;SDS011;28703;44.412;11.918;2023-03-14T01:21:38;6.50;;;2.58;;
39314;SDS011;28703;44.412;11.918;2023-03-14T01:24:04;4.68;;;1.50;;
39314;SDS011;28703;44.412;11.918;2023-03-14T01:26:32;5.35;;;1.73;;
39314;SDS011;28703;44.412;11.918;2023-03-14T01:29:00;5.25;;;1.48;;
39314;SDS011;28703;44.412;11.918;2023-03-14T01:31:27;5.07;;;2.33;;
39314;SDS011;28703;44.412;11.918;2023-03-14T01:33:53;5.70;;;1.90;;
39314;SDS011;28703;44.412;11.918;2023-03-14T01:36:19;14.70;;;3.15;;
39314;SDS011;28703;44.412;11.918;2023-03-14T01:38:46;5.80;;;2.03;;
39314;SDS011;28703;44.412;11.918;2023-03-14T01:41:18;5.93;;;1.83;;
39314;SDS011;28703;44.412;11.918;2023-03-14T01:43:46;9.77;;;2.17;;
39314;SDS011;28703;44.412;11.918;2023-03-14T01:46:18;6.45;;;1.77;;
39314;SDS011;28703;44.412;11.918;2023-03-14T01:48:50;8.15;;;1.90;;
39314;SDS011;28703;44.412;11.918;2023-03-14T01:51:23;5.55;;;1.75;;
39314;SDS011;28703;44.412;11.918;2023-03-14T01:54:00;6.25;;;2.17;;
39314;SDS011;28703;44.412;11.918;2023-03-14T01:56:32;6.88;;;1.60;;
39314;SDS011;28703;44.412;11.918;2023-03-14T01:58:58;7.63;;;2.40;;
39314;SDS011;28703;44.412;11.918;2023-03-14T02:01:26;6.28;;;2.00;;
39314;SDS011;28703;44.412;11.918;2023-03-14T02:03:54;9.00;;;1.98;;
39314;SDS011;28703;44.412;11.918;2023-03-14T02:06:24;6.90;;;2.05;;
39314;SDS011;28703;44.412;11.918;2023-03-14T02:08:57;6.38;;;2.28;;
39314;SDS011;28703;44.412;11.918;2023-03-14T02:11:28;6.50;;;2.53;;
39314;SDS011;28703;44.412;11.918;2023-03-14T02:14:01;8.25;;;3.25;;
39314;SDS011;28703;44.412;11.918;2023-03-14T02:16:54;9.30;;;3.13;;
39314;SDS011;28703;44.412;11.918;2023-03-14T02:22:29;8.68;;;3.72;;
39314;SDS011;28703;44.412;11.918;2023-03-14T02:27:35;8.80;;;3.92;;
39314;SDS011;28703;44.412;11.918;2023-03-14T02:30:04;7.25;;;4.72;;
39314;SDS011;28703;44.412;11.918;2023-03-14T02:32:33;12.00;;;5.25;;
39314;SDS011;28703;44.412;11.918;2023-03-14T02:35:03;12.93;;;6.45;;
39314;SDS011;28703;44.412;11.918;2023-03-14T02:37:35;14.88;;;6.22;;
39314;SDS011;28703;44.412;11.918;2023-03-14T02:40:07;12.02;;;7.38;;
39314;SDS011;28703;44.412;11.918;2023-03-14T02:42:34;14.65;;;7.80;;
39314;SDS011;28703;44.412;11.918;2023-03-14T02:47:37;13.80;;;7.72;;
39314;SDS011;28703;44.412;11.918;2023-03-14T02:50:12;16.05;;;9.65;;
39314;SDS011;28703;44.412;11.918;2023-03-14T02:52:40;16.92;;;8.05;;
39314;SDS011;28703;44.412;11.918;2023-03-14T02:55:07;19.88;;;8.10;;
39314;SDS011;28703;44.412;11.918;2023-03-14T02:57:34;13.50;;;8.48;;
39314;SDS011;28703;44.412;11.918;2023-03-14T03:00:02;14.60;;;8.35;;
39314;SDS011;28703;44.412;11.918;2023-03-14T03:02:35;18.35;;;8.77;;
39314;SDS011;28703;44.412;11.918;2023-03-14T03:05:01;17.38;;;9.23;;
39314;SDS011;28703;44.412;11.918;2023-03-14T03:07:27;18.25;;;9.15;;
39314;SDS011;28703;44.412;11.918;2023-03-14T03:09:55;11.27;;;7.95;;
39314;SDS011;28703;44.412;11.918;2023-03-14T03:12:20;13.50;;;8.55;;
39314;SDS011;28703;44.412;11.918;2023-03-14T03:14:46;14.18;;;8.75;;
39314;SDS011;28703;44.412;11.918;2023-03-14T03:17:14;14.23;;;7.90;;
39314;SDS011;28703;44.412;11.918;2023-03-14T03:19:40;13.60;;;8.43;;
39314;SDS011;28703;44.412;11.918;2023-03-14T03:22:06;15.77;;;7.95;;
39314;SDS011;28703;44.412;11.918;2023-03-14T03:24:32;14.85;;;7.82;;
39314;SDS011;28703;44.412;11.918;2023-03-14T03:27:00;12.35;;;7.28;;
39314;SDS011;28703;44.412;11.918;2023-03-14T03:29:26;17.35;;;8.93;;
39314;SDS011;28703;44.412;11.918;2023-03-14T03:31:53;15.55;;;7.55;;
39314;SDS011;28703;44.412;11.918;2023-03-14T03:34:19;13.98;;;7.38;;
39314;SDS011;28703;44.412;11.918;2023-03-14T03:36:48;13.20;;;6.65;;
39314;SDS011;28703;44.412;11.918;2023-03-14T03:39:14;11.35;;;6.88;;
39314;SDS011;28703;44.412;11.918;2023-03-14T03:41:40;13.05;;;6.57;;
39314;SDS011;28703;44.412;11.918;2023-03-14T03:44:06;13.40;;;7.00;;
39314;SDS011;28703;44.412;11.918;2023-03-14T03:46:32;15.23;;;6.57;;
39314;SDS011;28703;44.412;11.918;2023-03-14T03:48:58;14.48;;;6.25;;
39314;SDS011;28703;44.412;11.918;2023-03-14T03:51:26;8.60;;;5.65;;
39314;SDS011;28703;44.412;11.918;2023-03-14T03:53:52;12.10;;;5.85;;
39314;SDS011;28703;44.412;11.918;2023-03-14T03:56:26;11.20;;;5.95;;
39314;SDS011;28703;44.412;11.918;2023-03-14T03:58:52;15.75;;;7.25;;
39314;SDS011;28703;44.412;11.918;2023-03-14T04:01:17;12.85;;;6.40;;
39314;SDS011;28703;44.412;11.918;2023-03-14T04:03:47;10.65;;;6.28;;
39314;SDS011;28703;44.412;11.918;2023-03-14T04:06:14;12.10;;;5.82;;
39314;SDS011;28703;44.412;11.918;2023-03-14T04:08:43;9.82;;;5.43;;
39314;SDS011;28703;44.412;11.918;2023-03-14T04:11:17;8.68;;;5.03;;
39314;SDS011;28703;44.412;11.918;2023-03-14T04:14:06;12.27;;;4.38;;
39314;SDS011;28703;44.412;11.918;2023-03-14T04:16:32;13.63;;;5.78;;
39314;SDS011;28703;44.412;11.918;2023-03-14T04:19:10;9.30;;;4.63;;
39314;SDS011;28703;44.412;11.918;2023-03-14T04:21:36;4.75;;;3.40;;
39314;SDS011;28703;44.412;11.918;2023-03-14T04:24:08;11.68;;;3.88;;
39314;SDS011;28703;44.412;11.918;2023-03-14T04:26:34;10.98;;;4.03;;
39314;SDS011;28703;44.412;11.918;2023-03-14T04:29:00;9.27;;;4.30;;
39314;SDS011;28703;44.412;11.918;2023-03-14T04:31:26;11.65;;;3.60;;
39314;SDS011;28703;44.412;11.918;2023-03-14T04:33:52;9.00;;;3.38;;
39314;SDS011;28703;44.412;11.918;2023-03-14T04:36:25;11.05;;;2.88;;
39314;SDS011;28703;44.412;11.918;2023-03-14T04:38:51;8.75;;;2.72;;
39314;SDS011;28703;44.412;11.918;2023-03-14T04:41:19;8.95;;;2.58;;
39314;SDS011;28703;44.412;11.918;2023-03-14T04:43:45;6.07;;;2.35;;
39314;SDS011;28703;44.412;11.918;2023-03-14T04:46:12;7.35;;;2.40;;
39314;SDS011;28703;44.412;11.918;2023-03-14T04:48:38;4.40;;;2.28;;
39314;SDS011;28703;44.412;11.918;2023-03-14T04:51:05;11.65;;;5.15;;
39314;SDS011;28703;44.412;11.918;2023-03-14T04:53:33;8.82;;;2.97;;
39314;SDS011;28703;44.412;11.918;2023-03-14T04:56:02;9.25;;;2.92;;
39314;SDS011;28703;44.412;11.918;2023-03-14T04:58:35;8.10;;;2.40;;
39314;SDS011;28703;44.412;11.918;2023-03-14T05:01:03;8.75;;;2.47;;
39314;SDS011;28703;44.412;11.918;2023-03-14T05:04:02;6.03;;;2.00;;
39314;SDS011;28703;44.412;11.918;2023-03-14T05:06:48;6.35;;;1.58;;
39314;SDS011;28703;44.412;11.918;2023-03-14T05:09:45;5.43;;;1.73;;
39314;SDS011;28703;44.412;11.918;2023-03-14T05:12:43;7.15;;;1.88;;
39314;SDS011;28703;44.412;11.918;2023-03-14T05:15:28;7.50;;;2.25;;
39314;SDS011;28703;44.412;11.918;2023-03-14T05:18:17;7.07;;;1.77;;
39314;SDS011;28703;44.412;11.918;2023-03-14T05:21:10;4.65;;;1.67;;
39314;SDS011;28703;44.412;11.918;2023-03-14T05:24:02;7.07;;;2.22;;
39314;SDS011;28703;44.412;11.918;2023-03-14T05:26:42;7.22;;;1.95;;
39314;SDS011;28703;44.412;11.918;2023-03-14T05:29:29;5.57;;;1.70;;
39314;SDS011;28703;44.412;11.918;2023-03-14T05:32:14;8.93;;;2.15;;
39314;SDS011;28703;44.412;11.918;2023-03-14T05:34:51;8.88;;;1.80;;
39314;SDS011;28703;44.412;11.918;2023-03-14T05:37:46;8.55;;;1.90;;
39314;SDS011;28703;44.412;11.918;2023-03-14T05:40:33;9.15;;;2.85;;
39314;SDS011;28703;44.412;11.918;2023-03-14T05:43:06;11.43;;;2.97;;
39314;SDS011;28703;44.412;11.918;2023-03-14T05:46:05;10.23;;;3.72;;
39314;SDS011;28703;44.412;11.918;2023-03-14T05:48:52;9.55;;;1.95;;
39314;SDS011;28703;44.412;11.918;2023-03-14T05:51:35;7.68;;;2.40;;
39314;SDS011;28703;44.412;11.918;2023-03-14T05:54:19;8.35;;;2.45;;
39314;SDS011;28703;44.412;11.918;2023-03-14T05:57:04;32.58;;;4.80;;
39314;SDS011;28703;44.412;11.918;2023-03-14T05:59:45;57.03;;;5.38;;
39314;SDS011;28703;44.412;11.918;2023-03-14T06:02:31;39.22;;;5.47;;
39314;SDS011;28703;44.412;11.918;2023-03-14T06:05:05;18.88;;;3.63;;
39314;SDS011;28703;44.412;11.918;2023-03-14T06:07:32;10.70;;;2.47;;
39314;SDS011;28703;44.412;11.918;2023-03-14T06:09:58;4.25;;;1.85;;
39314;SDS011;28703;44.412;11.918;2023-03-14T06:12:24;10.55;;;1.95;;
39314;SDS011;28703;44.412;11.918;2023-03-14T06:14:50;7.13;;;2.95;;
39314;SDS011;28703;44.412;11.918;2023-03-14T06:17:16;10.93;;;3.20;;
39314;SDS011;28703;44.412;11.918;2023-03-14T06:19:49;5.53;;;2.20;;
39314;SDS011;28703;44.412;11.918;2023-03-14T06:22:15;8.65;;;3.33;;
39314;SDS011;28703;44.412;11.918;2023-03-14T06:24:41;7.15;;;2.50;;
39314;SDS011;28703;44.412;11.918;2023-03-14T06:27:07;11.57;;;3.00;;
39314;SDS011;28703;44.412;11.918;2023-03-14T06:29:33;7.32;;;2.33;;
39314;SDS011;28703;44.412;11.918;2023-03-14T06:31:59;11.25;;;3.03;;
39314;SDS011;28703;44.412;11.918;2023-03-14T06:34:26;9.02;;;2.60;;
39314;SDS011;28703;44.412;11.918;2023-03-14T06:36:53;8.23;;;2.95;;
39314;SDS011;28703;44.412;11.918;2023-03-14T06:39:19;10.45;;;3.60;;
39314;SDS011;28703;44.412;11.918;2023-03-14T06:41:49;16.27;;;3.35;;
39314;SDS011;28703;44.412;11.918;2023-03-14T06:44:16;6.63;;;2.80;;
39314;SDS011;28703;44.412;11.918;2023-03-14T06:46:43;10.73;;;3.08;;
39314;SDS011;28703;44.412;11.918;2023-03-14T06:49:09;9.15;;;3.33;;
39314;SDS011;28703;44.412;11.918;2023-03-14T06:51:35;9.85;;;7.43;;
39314;SDS011;28703;44.412;11.918;2023-03-14T06:54:03;13.25;;;7.20;;
39314;SDS011;28703;44.412;11.918;2023-03-14T06:56:29;14.60;;;4.82;;
39314;SDS011;28703;44.412;11.918;2023-03-14T06:58:56;9.85;;;4.20;;
39314;SDS011;28703;44.412;11.918;2023-03-14T07:01:25;9.32;;;3.22;;
39314;SDS011;28703;44.412;11.918;2023-03-14T07:03:56;9.75;;;3.83;;
39314;SDS011;28703;44.412;11.918;2023-03-14T07:06:22;15.80;;;3.85;;
39314;SDS011;28703;44.412;11.918;2023-03-14T07:08:49;6.60;;;2.75;;
39314;SDS011;28703;44.412;11.918;2023-03-14T07:11:16;6.85;;;3.17;;
39314;SDS011;28703;44.412;11.918;2023-03-14T07:13:43;9.18;;;2.60;;
39314;SDS011;28703;44.412;11.918;2023-03-14T07:16:09;8.55;;;2.90;;
39314;SDS011;28703;44.412;11.918;2023-03-14T07:18:36;7.60;;;2.50;;
39314;SDS011;28703;44.412;11.918;2023-03-14T07:21:07;8.50;;;2.88;;
39314;SDS011;28703;44.412;11.918;2023-03-14T07:23:37;10.48;;;3.08;;
39314;SDS011;28703;44.412;11.918;2023-03-14T07:26:05;5.32;;;2.08;;
39314;SDS011;28703;44.412;11.918;2023-03-14T07:28:34;8.45;;;2.40;;
39314;SDS011;28703;44.412;11.918;2023-03-14T07:31:08;6.13;;;1.80;;
39314;SDS011;28703;44.412;11.918;2023-03-14T07:33:36;7.97;;;2.20;;
39314;SDS011;28703;44.412;11.918;2023-03-14T07:36:02;18.45;;;4.97;;
39314;SDS011;28703;44.412;11.918;2023-03-14T07:38:28;12.82;;;2.90;;
39314;SDS011;28703;44.412;11.918;2023-03-14T07:41:30;7.00;;;3.03;;
39314;SDS011;28703;44.412;11.918;2023-03-14T07:44:15;16.23;;;3.85;;
39314;SDS011;28703;44.412;11.918;2023-03-14T07:46:41;15.52;;;4.38;;
39314;SDS011;28703;44.412;11.918;2023-03-14T07:49:07;14.88;;;5.63;;
39314;SDS011;28703;44.412;11.918;2023-03-14T07:51:33;15.18;;;3.65;;
39314;SDS011;28703;44.412;11.918;2023-03-14T07:53:59;12.60;;;3.97;;
39314;SDS011;28703;44.412;11.918;2023-03-14T07:56:26;21.45;;;3.78;;
39314;SDS011;28703;44.412;11.918;2023-03-14T07:58:52;6.07;;;2.45;;
39314;SDS011;28703;44.412;11.918;2023-03-14T08:01:18;6.72;;;2.40;;
39314;SDS011;28703;44.412;11.918;2023-03-14T08:03:44;5.35;;;2.30;;
39314;SDS011;28703;44.412;11.918;2023-03-14T08:06:10;10.07;;;2.78;;
39314;SDS011;28703;44.412;11.918;2023-03-14T08:08:36;7.30;;;2.25;;
39314;SDS011;28703;44.412;11.918;2023-03-14T08:11:06;11.88;;;2.28;;
39314;SDS011;28703;44.412;11.918;2023-03-14T08:13:34;6.75;;;2.03;;
39314;SDS011;28703;44.412;11.918;2023-03-14T08:16:00;7.93;;;2.25;;
39314;SDS011;28703;44.412;11.918;2023-03-14T08:18:27;8.32;;;2.75;;
39314;SDS011;28703;44.412;11.918;2023-03-14T08:20:53;9.40;;;2.85;;
39314;SDS011;28703;44.412;11.918;2023-03-14T08:23:19;11.40;;;3.42;;
39314;SDS011;28703;44.412;11.918;2023-03-14T08:25:45;9.90;;;2.80;;
39314;SDS011;28703;44.412;11.918;2023-03-14T08:28:14;9.00;;;2.10;;
39314;SDS011;28703;44.412;11.918;2023-03-14T08:30:40;7.47;;;2.22;;
39314;SDS011;28703;44.412;11.918;2023-03-14T08:33:06;14.43;;;2.78;;
39314;SDS011;28703;44.412;11.918;2023-03-14T08:35:32;10.00;;;2.72;;
39314;SDS011;28703;44.412;11.918;2023-03-14T08:37:58;8.55;;;2.60;;
39314;SDS011;28703;44.412;11.918;2023-03-14T08:40:24;9.73;;;2.58;;
39314;SDS011;28703;44.412;11.918;2023-03-14T08:42:50;9.05;;;2.72;;
39314;SDS011;28703;44.412;11.918;2023-03-14T08:45:16;8.57;;;2.60;;
39314;SDS011;28703;44.412;11.918;2023-03-14T08:47:43;10.73;;;3.28;;
39314;SDS011;28703;44.412;11.918;2023-03-14T08:50:09;7.93;;;2.97;;
39314;SDS011;28703;44.412;11.918;2023-03-14T08:52:36;6.57;;;2.55;;
39314;SDS011;28703;44.412;11.918;2023-03-14T08:55:12;8.68;;;2.92;;
39314;SDS011;28703;44.412;11.918;2023-03-14T08:57:41;12.85;;;3.10;;
39314;SDS011;28703;44.412;11.918;2023-03-14T09:00:08;6.90;;;3.45;;
39314;SDS011;28703;44.412;11.918;2023-03-14T09:02:37;9.43;;;3.38;;
39314;SDS011;28703;44.412;11.918;2023-03-14T09:05:04;16.55;;;3.65;;
39314;SDS011;28703;44.412;11.918;2023-03-14T09:07:31;15.48;;;3.45;;
39314;SDS011;28703;44.412;11.918;2023-03-14T09:09:57;12.55;;;3.58;;
39314;SDS011;28703;44.412;11.918;2023-03-14T09:12:23;15.80;;;7.88;;
39314;SDS011;28703;44.412;11.918;2023-03-14T09:14:49;26.40;;;19.23;;
39314;SDS011;28703;44.412;11.918;2023-03-14T09:17:15;12.75;;;5.72;;
39314;SDS011;28703;44.412;11.918;2023-03-14T09:19:41;9.27;;;2.97;;
39314;SDS011;28703;44.412;11.918;2023-03-14T09:22:07;7.95;;;2.67;;
39314;SDS011;28703;44.412;11.918;2023-03-14T09:24:33;13.07;;;3.40;;
39314;SDS011;28703;44.412;11.918;2023-03-14T09:27:00;7.03;;;3.03;;
39314;SDS011;28703;44.412;11.918;2023-03-14T09:29:27;5.72;;;2.55;;
39314;SDS011;28703;44.412;11.918;2023-03-14T09:31:53;4.18;;;1.92;;
39314;SDS011;28703;44.412;11.918;2023-03-14T09:34:19;5.93;;;2.50;;
39314;SDS011;28703;44.412;11.918;2023-03-14T09:36:46;4.45;;;1.80;;
39314;SDS011;28703;44.412;11.918;2023-03-14T09:39:14;5.00;;;2.30;;
39314;SDS011;28703;44.412;11.918;2023-03-14T09:41:44;6.25;;;2.72;;
39314;SDS011;28703;44.412;11.918;2023-03-14T09:44:19;12.70;;;7.10;;
39314;SDS011;28703;44.412;11.918;2023-03-14T09:46:52;16.17;;;8.38;;
39314;SDS011;28703;44.412;11.918;2023-03-14T09:49:22;7.82;;;4.30;;
39314;SDS011;28703;44.412;11.918;2023-03-14T09:51:53;14.68;;;8.65;;
39314;SDS011;28703;44.412;11.918;2023-03-14T09:56:57;11.02;;;6.18;;
39314;SDS011;28703;44.412;11.918;2023-03-14T09:59:26;28.95;;;5.47;;
39314;SDS011;28703;44.412;11.918;2023-03-14T10:01:55;11.48;;;4.20;;
39314;SDS011;28703;44.412;11.918;2023-03-14T10:04:26;8.45;;;3.90;;
39314;SDS011;28703;44.412;11.918;2023-03-14T10:06:55;8.82;;;2.38;;
39314;SDS011;28703;44.412;11.918;2023-03-14T10:09:22;6.82;;;3.65;;
39314;SDS011;28703;44.412;11.918;2023-03-14T10:11:55;11.32;;;3.67;;
39314;SDS011;28703;44.412;11.918;2023-03-14T10:14:30;7.85;;;2.47;;
39314;SDS011;28703;44.412;11.918;2023-03-14T10:17:04;7.90;;;3.30;;
39314;SDS011;28703;44.412;11.918;2023-03-14T10:19:35;9.98;;;2.28;;
39314;SDS011;28703;44.412;11.918;2023-03-14T10:22:03;7.28;;;2.33;;
39314;SDS011;28703;44.412;11.918;2023-03-14T10:24:36;8.43;;;2.58;;
39314;SDS011;28703;44.412;11.918;2023-03-14T10:27:10;10.50;;;3.13;;
39314;SDS011;28703;44.412;11.918;2023-03-14T10:29:54;3.95;;;2.17;;
39314;SDS011;28703;44.412;11.918;2023-03-14T10:32:31;7.50;;;2.60;;
39314;SDS011;28703;44.412;11.918;2023-03-14T10:37:50;7.72;;;2.40;;
39314;SDS011;28703;44.412;11.918;2023-03-14T10:40:33;9.23;;;4.40;;
39314;SDS011;28703;44.412;11.918;2023-03-14T10:43:04;11.82;;;5.18;;
39314;SDS011;28703;44.412;11.918;2023-03-14T10:48:52;8.43;;;3.13;;
39314;SDS011;28703;44.412;11.918;2023-03-14T10:51:07;9.20;;;3.92;;
39314;SDS011;28703;44.412;11.918;2023-03-14T10:54:19;10.45;;;2.45;;
39314;SDS011;28703;44.412;11.918;2023-03-14T10:56:55;5.57;;;2.60;;
39314;SDS011;28703;44.412;11.918;2023-03-14T10:59:28;7.45;;;3.58;;
39314;SDS011;28703;44.412;11.918;2023-03-14T11:02:06;6.55;;;2.35;;
39314;SDS011;28703;44.412;11.918;2023-03-14T11:07:32;9.88;;;3.22;;
39314;SDS011;28703;44.412;11.918;2023-03-14T11:15:30;8.32;;;2.33;;
39314;SDS011;28703;44.412;11.918;2023-03-14T11:18:10;6.22;;;2.40;;
39314;SDS011;28703;44.412;11.918;2023-03-14T11:23:34;7.20;;;2.28;;
39314;SDS011;28703;44.412;11.918;2023-03-14T11:26:20;5.10;;;2.00;;
39314;SDS011;28703;44.412;11.918;2023-03-14T11:28:58;5.28;;;1.45;;
39314;SDS011;28703;44.412;11.918;2023-03-14T11:31:48;8.65;;;2.00;;
39314;SDS011;28703;44.412;11.918;2023-03-14T11:34:18;7.15;;;1.83;;
39314;SDS011;28703;44.412;11.918;2023-03-14T11:36:59;10.18;;;2.28;;
39314;SDS011;28703;44.412;11.918;2023-03-14T11:39:36;4.65;;;1.70;;
39314;SDS011;28703;44.412;11.918;2023-03-14T11:42:15;3.88;;;1.70;;
39314;SDS011;28703;44.412;11.918;2023-03-14T11:44:43;4.35;;;1.77;;
39314;SDS011;28703;44.412;11.918;2023-03-14T11:47:22;8.32;;;1.60;;
39314;SDS011;28703;44.412;11.918;2023-03-14T11:55:38;9.32;;;1.58;;
39314;SDS011;28703;44.412;11.918;2023-03-14T11:58:12;4.40;;;1.60;;
39314;SDS011;28703;44.412;11.918;2023-03-14T12:00:44;4.05;;;1.35;;
39314;SDS011;28703;44.412;11.918;2023-03-14T12:11:21;6.50;;;1.95;;
39314;SDS011;28703;44.412;11.918;2023-03-14T12:13:54;3.75;;;1.52;;
39314;SDS011;28703;44.412;11.918;2023-03-14T12:18:53;3.88;;;1.85;;
39314;SDS011;28703;44.412;11.918;2023-03-14T12:24:16;7.35;;;2.42;;
39314;SDS011;28703;44.412;11.918;2023-03-14T12:26:55;3.83;;;1.50;;
39314;SDS011;28703;44.412;11.918;2023-03-14T12:29:23;4.00;;;2.13;;
39314;SDS011;28703;44.412;11.918;2023-03-14T12:34:30;3.30;;;1.48;;
39314;SDS011;28703;44.412;11.918;2023-03-14T12:48:00;6.78;;;1.27;;
39314;SDS011;28703;44.412;11.918;2023-03-14T12:50:34;2.30;;;1.10;;
39314;SDS011;28703;44.412;11.918;2023-03-14T12:53:12;4.13;;;2.58;;
39314;SDS011;28703;44.412;11.918;2023-03-14T12:55:50;2.42;;;1.50;;
39314;SDS011;28703;44.412;11.918;2023-03-14T13:01:56;2.83;;;1.70;;
39314;SDS011;28703;44.412;11.918;2023-03-14T13:04:29;3.60;;;1.33;;
39314;SDS011;28703;44.412;11.918;2023-03-14T13:07:28;3.70;;;1.58;;
39314;SDS011;28703;44.412;11.918;2023-03-14T13:10:20;2.33;;;1.25;;
39314;SDS011;28703;44.412;11.918;2023-03-14T13:15:54;5.07;;;1.17;;
39314;SDS011;28703;44.412;11.918;2023-03-14T13:18:35;3.83;;;1.23;;
39314;SDS011;28703;44.412;11.918;2023-03-14T13:24:06;2.35;;;0.93;;
39314;SDS011;28703;44.412;11.918;2023-03-14T13:26:57;1.63;;;1.42;;
39314;SDS011;28703;44.412;11.918;2023-03-14T13:29:50;1.15;;;0.77;;
39314;SDS011;28703;44.412;11.918;2023-03-14T13:32:18;2.50;;;1.00;;
39314;SDS011;28703;44.412;11.918;2023-03-14T13:34:46;1.75;;;1.38;;
39314;SDS011;28703;44.412;11.918;2023-03-14T13:37:18;1.10;;;0.80;;
39314;SDS011;28703;44.412;11.918;2023-03-14T13:39:56;1.23;;;0.60;;
39314;SDS011;28703;44.412;11.918;2023-03-14T13:42:26;4.35;;;0.88;;
39314;SDS011;28703;44.412;11.918;2023-03-14T13:44:56;3.80;;;0.70;;
39314;SDS011;28703;44.412;11.918;2023-03-14T13:47:23;2.70;;;1.15;;
39314;SDS011;28703;44.412;11.918;2023-03-14T13:49:51;4.22;;;2.28;;
39314;SDS011;28703;44.412;11.918;2023-03-14T13:52:31;4.40;;;1.75;;
39314;SDS011;28703;44.412;11.918;2023-03-14T13:55:00;13.18;;;4.63;;
39314;SDS011;28703;44.412;11.918;2023-03-14T13:57:42;9.85;;;5.28;;
39314;SDS011;28703;44.412;11.918;2023-03-14T14:00:17;7.63;;;5.28;;
39314;SDS011;28703;44.412;11.918;2023-03-14T14:02:53;8.40;;;5.53;;
39314;SDS011;28703;44.412;11.918;2023-03-14T14:05:20;7.88;;;5.68;;
39314;SDS011;28703;44.412;11.918;2023-03-14T14:07:47;6.80;;;2.50;;
39314;SDS011;28703;44.412;11.918;2023-03-14T14:10:17;3.28;;;1.30;;
39314;SDS011;28703;44.412;11.918;2023-03-14T14:12:52;5.28;;;1.63;;
39314;SDS011;28703;44.412;11.918;2023-03-14T14:15:27;3.65;;;1.55;;
39314;SDS011;28703;44.412;11.918;2023-03-14T14:17:58;8.73;;;2.83;;
39314;SDS011;28703;44.412;11.918;2023-03-14T14:20:41;7.10;;;1.67;;
39314;SDS011;28703;44.412;11.918;2023-03-14T14:23:13;4.45;;;1.92;;
39314;SDS011;28703;44.412;11.918;2023-03-14T14:25:53;10.20;;;2.67;;
39314;SDS011;28703;44.412;11.918;2023-03-14T14:28:28;7.18;;;1.58;;
39314;SDS011;28703;44.412;11.918;2023-03-14T14:31:06;3.65;;;2.03;;
39314;SDS011;28703;44.412;11.918;2023-03-14T14:33:45;9.93;;;2.75;;
39314;SDS011;28703;44.412;11.918;2023-03-14T14:39:09;4.72;;;2.97;;
39314;SDS011;28703;44.412;11.918;2023-03-14T14:41:45;6.55;;;2.70;;
39314;SDS011;28703;44.412;11.918;2023-03-14T14:44:17;9.38;;;2.15;;
39314;SDS011;28703;44.412;11.918;2023-03-14T14:46:54;10.20;;;3.20;;
39314;SDS011;28703;44.412;11.918;2023-03-14T14:49:21;8.38;;;3.63;;
39314;SDS011;28703;44.412;11.918;2023-03-14T14:51:59;6.88;;;2.35;;
39314;SDS011;28703;44.412;11.918;2023-03-14T14:54:52;4.15;;;2.00;;
39314;SDS011;28703;44.412;11.918;2023-03-14T14:57:23;5.75;;;2.10;;
39314;SDS011;28703;44.412;11.918;2023-03-14T15:00:00;6.13;;;1.95;;
39314;SDS011;28703;44.412;11.918;2023-03-14T15:02:36;10.50;;;1.85;;
39314;SDS011;28703;44.412;11.918;2023-03-14T15:05:14;3.47;;;1.40;;
39314;SDS011;28703;44.412;11.918;2023-03-14T15:07:41;4.75;;;1.77;;
39314;SDS011;28703;44.412;11.918;2023-03-14T15:10:10;4.80;;;1.70;;
39314;SDS011;28703;44.412;11.918;2023-03-14T15:12:50;6.82;;;1.40;;
39314;SDS011;28703;44.412;11.918;2023-03-14T15:15:17;7.38;;;2.47;;
39314;SDS011;28703;44.412;11.918;2023-03-14T15:17:43;6.30;;;1.63;;
39314;SDS011;28703;44.412;11.918;2023-03-14T15:20:10;9.38;;;1.67;;
39314;SDS011;28703;44.412;11.918;2023-03-14T15:22:41;7.55;;;1.88;;
39314;SDS011;28703;44.412;11.918;2023-03-14T15:25:08;6.18;;;1.70;;
39314;SDS011;28703;44.412;11.918;2023-03-14T15:27:35;8.98;;;2.45;;
39314;SDS011;28703;44.412;11.918;2023-03-14T15:30:16;8.48;;;1.70;;
39314;SDS011;28703;44.412;11.918;2023-03-14T15:32:43;6.45;;;1.55;;
39314;SDS011;28703;44.412;11.918;2023-03-14T15:35:10;8.30;;;1.88;;
39314;SDS011;28703;44.412;11.918;2023-03-14T15:37:36;9.38;;;1.52;;
39314;SDS011;28703;44.412;11.918;2023-03-14T15:40:03;12.02;;;2.15;;
39314;SDS011;28703;44.412;11.918;2023-03-14T15:42:37;10.07;;;1.75;;
39314;SDS011;28703;44.412;11.918;2023-03-14T15:45:03;4.88;;;1.55;;
39314;SDS011;28703;44.412;11.918;2023-03-14T15:47:29;8.52;;;2.10;;
39314;SDS011;28703;44.412;11.918;2023-03-14T15:49:57;14.18;;;1.88;;
39314;SDS011;28703;44.412;11.918;2023-03-14T15:52:23;10.18;;;2.55;;
39314;SDS011;28703;44.412;11.918;2023-03-14T15:54:49;8.88;;;2.28;;
39314;SDS011;28703;44.412;11.918;2023-03-14T15:57:15;10.45;;;2.33;;
39314;SDS011;28703;44.412;11.918;2023-03-14T15:59:44;5.03;;;1.75;;
39314;SDS011;28703;44.412;11.918;2023-03-14T16:02:10;7.13;;;2.22;;
39314;SDS011;28703;44.412;11.918;2023-03-14T16:04:36;8.48;;;2.03;;
39314;SDS011;28703;44.412;11.918;2023-03-14T16:07:02;13.05;;;2.97;;
39314;SDS011;28703;44.412;11.918;2023-03-14T16:09:28;9.95;;;2.67;;
39314;SDS011;28703;44.412;11.918;2023-03-14T16:11:54;9.90;;;2.72;;
39314;SDS011;28703;44.412;11.918;2023-03-14T16:14:22;13.23;;;2.40;;
39314;SDS011;28703;44.412;11.918;2023-03-14T16:16:48;7.85;;;3.08;;
39314;SDS011;28703;44.412;11.918;2023-03-14T16:19:14;10.38;;;2.50;;